sensor_id;sensor_type;location;lat;lon;timestamp;P1;durP1;ratioP1;P2;durP2;ratioP2
59074;SDS011;44860;53.020;6.738;2023-03-24T00:03:39;11.85;;;5.30;;
59074;SDS011;44860;53.020;6.738;2023-03-24T00:11:28;11.35;;;5.22;;
59074;SDS011;44860;53.020;6.738;2023-03-24T00:14:01;9.70;;;5.10;;
59074;SDS011;44860;53.020;6.738;2023-03-24T00:16:28;11.35;;;5.32;;
59074;SDS011;44860;53.020;6.738;2023-03-24T00:18:54;9.75;;;5.10;;
59074;SDS011;44860;53.020;6.738;2023-03-24T00:21:21;10.57;;;5.65;;
59074;SDS011;44860;53.020;6.738;2023-03-24T00:23:51;9.80;;;5.20;;
59074;SDS011;44860;53.020;6.738;2023-03-24T00:26:22;12.25;;;5.47;;
59074;SDS011;44860;53.020;6.738;2023-03-24T00:28:49;13.25;;;5.35;;
59074;SDS011;44860;53.020;6.738;2023-03-24T00:31:16;12.68;;;5.45;;
59074;SDS011;44860;53.020;6.738;2023-03-24T00:33:43;7.28;;;4.78;;
59074;SDS011;44860;53.020;6.738;2023-03-24T00:36:14;14.77;;;6.07;;
59074;SDS011;44860;53.020;6.738;2023-03-24T00:38:42;8.77;;;5.07;;
59074;SDS011;44860;53.020;6.738;2023-03-24T00:41:08;9.18;;;5.18;;
59074;SDS011;44860;53.020;6.738;2023-03-24T00:43:37;12.93;;;5.63;;
59074;SDS011;44860;53.020;6.738;2023-03-24T00:46:05;13.20;;;5.30;;
59074;SDS011;44860;53.020;6.738;2023-03-24T00:48:35;13.30;;;5.50;;
59074;SDS011;44860;53.020;6.738;2023-03-24T00:51:03;8.88;;;4.78;;
59074;SDS011;44860;53.020;6.738;2023-03-24T00:53:32;8.77;;;4.20;;
59074;SDS011;44860;53.020;6.738;2023-03-24T00:55:59;13.43;;;5.22;;
59074;SDS011;44860;53.020;6.738;2023-03-24T00:58:25;10.40;;;4.88;;
59074;SDS011;44860;53.020;6.738;2023-03-24T01:00:54;9.82;;;4.82;;
59074;SDS011;44860;53.020;6.738;2023-03-24T01:03:22;7.70;;;5.00;;
59074;SDS011;44860;53.020;6.738;2023-03-24T01:05:58;8.60;;;4.82;;
59074;SDS011;44860;53.020;6.738;2023-03-24T01:08:26;7.72;;;4.50;;
59074;SDS011;44860;53.020;6.738;2023-03-24T01:10:52;10.95;;;4.68;;
59074;SDS011;44860;53.020;6.738;2023-03-24T01:13:24;9.70;;;4.82;;
59074;SDS011;44860;53.020;6.738;2023-03-24T01:15:52;9.15;;;4.53;;
59074;SDS011;44860;53.020;6.738;2023-03-24T01:18:18;9.57;;;5.47;;
59074;SDS011;44860;53.020;6.738;2023-03-24T01:20:45;10.35;;;5.07;;
59074;SDS011;44860;53.020;6.738;2023-03-24T01:23:13;10.25;;;4.90;;
59074;SDS011;44860;53.020;6.738;2023-03-24T01:25:41;7.93;;;4.63;;
59074;SDS011;44860;53.020;6.738;2023-03-24T01:28:10;8.05;;;4.63;;
59074;SDS011;44860;53.020;6.738;2023-03-24T01:30:37;10.52;;;5.07;;
59074;SDS011;44860;53.020;6.738;2023-03-24T01:33:03;10.43;;;4.63;;
59074;SDS011;44860;53.020;6.738;2023-03-24T01:35:29;10.82;;;5.10;;
59074;SDS011;44860;53.020;6.738;2023-03-24T01:37:55;9.10;;;4.97;;
59074;SDS011;44860;53.020;6.738;2023-03-24T01:40:22;9.38;;;5.03;;
59074;SDS011;44860;53.020;6.738;2023-03-24T01:42:51;11.23;;;4.80;;
59074;SDS011;44860;53.020;6.738;2023-03-24T01:48:18;9.00;;;4.80;;
59074;SDS011;44860;53.020;6.738;2023-03-24T01:50:50;9.23;;;4.72;;
59074;SDS011;44860;53.020;6.738;2023-03-24T01:53:37;8.38;;;4.82;;
59074;SDS011;44860;53.020;6.738;2023-03-24T01:56:07;7.78;;;4.72;;
59074;SDS011;44860;53.020;6.738;2023-03-24T01:58:35;9.77;;;4.72;;
59074;SDS011;44860;53.020;6.738;2023-03-24T02:01:03;6.88;;;4.50;;
59074;SDS011;44860;53.020;6.738;2023-03-24T02:03:29;7.45;;;4.70;;
59074;SDS011;44860;53.020;6.738;2023-03-24T02:05:58;8.48;;;4.20;;
59074;SDS011;44860;53.020;6.738;2023-03-24T02:08:40;7.38;;;4.45;;
59074;SDS011;44860;53.020;6.738;2023-03-24T02:11:12;6.82;;;4.65;;
59074;SDS011;44860;53.020;6.738;2023-03-24T02:13:38;7.13;;;4.22;;
59074;SDS011;44860;53.020;6.738;2023-03-24T02:16:12;8.27;;;4.75;;
59074;SDS011;44860;53.020;6.738;2023-03-24T02:21:57;8.55;;;4.30;;
59074;SDS011;44860;53.020;6.738;2023-03-24T02:36:15;7.68;;;5.07;;
59074;SDS011;44860;53.020;6.738;2023-03-24T02:44:34;7.68;;;5.15;;
59074;SDS011;44860;53.020;6.738;2023-03-24T02:50:05;9.77;;;5.07;;
59074;SDS011;44860;53.020;6.738;2023-03-24T02:55:45;7.97;;;4.90;;
59074;SDS011;44860;53.020;6.738;2023-03-24T02:58:37;7.38;;;4.72;;
59074;SDS011;44860;53.020;6.738;2023-03-24T03:01:12;8.50;;;5.18;;
59074;SDS011;44860;53.020;6.738;2023-03-24T03:03:49;7.15;;;4.80;;
59074;SDS011;44860;53.020;6.738;2023-03-24T03:06:25;9.10;;;5.13;;
59074;SDS011;44860;53.020;6.738;2023-03-24T03:08:57;7.88;;;4.53;;
59074;SDS011;44860;53.020;6.738;2023-03-24T03:11:29;8.52;;;5.10;;
59074;SDS011;44860;53.020;6.738;2023-03-24T03:13:59;8.13;;;4.90;;
59074;SDS011;44860;53.020;6.738;2023-03-24T03:16:46;8.13;;;5.03;;
59074;SDS011;44860;53.020;6.738;2023-03-24T03:19:29;8.25;;;4.65;;
59074;SDS011;44860;53.020;6.738;2023-03-24T03:21:58;8.95;;;4.93;;
59074;SDS011;44860;53.020;6.738;2023-03-24T03:24:26;7.13;;;4.97;;
59074;SDS011;44860;53.020;6.738;2023-03-24T03:27:08;7.32;;;4.88;;
59074;SDS011;44860;53.020;6.738;2023-03-24T03:29:39;8.13;;;5.13;;
59074;SDS011;44860;53.020;6.738;2023-03-24T03:32:09;9.32;;;5.00;;
59074;SDS011;44860;53.020;6.738;2023-03-24T03:34:45;7.82;;;4.75;;
59074;SDS011;44860;53.020;6.738;2023-03-24T03:43:13;7.70;;;5.50;;
59074;SDS011;44860;53.020;6.738;2023-03-24T03:45:39;6.18;;;5.00;;
59074;SDS011;44860;53.020;6.738;2023-03-24T03:48:05;6.40;;;4.18;;
59074;SDS011;44860;53.020;6.738;2023-03-24T03:50:31;5.38;;;3.63;;
59074;SDS011;44860;53.020;6.738;2023-03-24T03:52:57;3.75;;;3.35;;
59074;SDS011;44860;53.020;6.738;2023-03-24T03:55:22;3.88;;;2.90;;
59074;SDS011;44860;53.020;6.738;2023-03-24T03:57:52;4.75;;;3.20;;
59074;SDS011;44860;53.020;6.738;2023-03-24T04:00:19;4.95;;;3.45;;
59074;SDS011;44860;53.020;6.738;2023-03-24T04:06:08;8.13;;;3.47;;
59074;SDS011;44860;53.020;6.738;2023-03-24T04:11:12;5.55;;;2.58;;
59074;SDS011;44860;53.020;6.738;2023-03-24T04:19:26;4.20;;;2.60;;
59074;SDS011;44860;53.020;6.738;2023-03-24T04:27:46;6.57;;;2.53;;
59074;SDS011;44860;53.020;6.738;2023-03-24T04:33:03;8.40;;;2.75;;
59074;SDS011;44860;53.020;6.738;2023-03-24T04:35:45;8.25;;;2.85;;
59074;SDS011;44860;53.020;6.738;2023-03-24T04:38:20;8.70;;;2.38;;
59074;SDS011;44860;53.020;6.738;2023-03-24T04:40:52;8.48;;;2.65;;
59074;SDS011;44860;53.020;6.738;2023-03-24T04:43:21;6.85;;;2.10;;
59074;SDS011;44860;53.020;6.738;2023-03-24T04:45:52;5.05;;;2.20;;
59074;SDS011;44860;53.020;6.738;2023-03-24T04:48:22;6.13;;;2.50;;
59074;SDS011;44860;53.020;6.738;2023-03-24T04:50:51;9.30;;;2.33;;
59074;SDS011;44860;53.020;6.738;2023-03-24T04:53:20;8.73;;;2.50;;
59074;SDS011;44860;53.020;6.738;2023-03-24T04:58:15;7.57;;;2.35;;
59074;SDS011;44860;53.020;6.738;2023-03-24T05:00:42;9.32;;;2.25;;
59074;SDS011;44860;53.020;6.738;2023-03-24T05:03:09;6.78;;;2.30;;
59074;SDS011;44860;53.020;6.738;2023-03-24T05:05:39;8.30;;;2.45;;
59074;SDS011;44860;53.020;6.738;2023-03-24T05:08:09;7.18;;;1.90;;
59074;SDS011;44860;53.020;6.738;2023-03-24T05:10:35;11.15;;;2.47;;
59074;SDS011;44860;53.020;6.738;2023-03-24T05:13:01;11.05;;;2.72;;
59074;SDS011;44860;53.020;6.738;2023-03-24T05:15:28;9.73;;;2.40;;
59074;SDS011;44860;53.020;6.738;2023-03-24T05:17:54;10.32;;;2.90;;
59074;SDS011;44860;53.020;6.738;2023-03-24T05:20:20;11.73;;;2.95;;
59074;SDS011;44860;53.020;6.738;2023-03-24T05:22:47;13.68;;;2.75;;
59074;SDS011;44860;53.020;6.738;2023-03-24T05:25:13;9.65;;;2.63;;
59074;SDS011;44860;53.020;6.738;2023-03-24T05:27:40;10.63;;;2.58;;
59074;SDS011;44860;53.020;6.738;2023-03-24T05:30:08;13.00;;;2.65;;
59074;SDS011;44860;53.020;6.738;2023-03-24T05:32:35;9.68;;;2.00;;
59074;SDS011;44860;53.020;6.738;2023-03-24T05:35:01;10.48;;;2.67;;
59074;SDS011;44860;53.020;6.738;2023-03-24T05:37:27;10.50;;;2.70;;
59074;SDS011;44860;53.020;6.738;2023-03-24T05:39:57;10.07;;;2.85;;
59074;SDS011;44860;53.020;6.738;2023-03-24T05:42:23;11.27;;;2.90;;
59074;SDS011;44860;53.020;6.738;2023-03-24T05:44:49;12.10;;;2.83;;
59074;SDS011;44860;53.020;6.738;2023-03-24T05:47:14;11.30;;;3.03;;
59074;SDS011;44860;53.020;6.738;2023-03-24T05:49:41;11.43;;;2.95;;
59074;SDS011;44860;53.020;6.738;2023-03-24T05:52:07;13.35;;;3.05;;
59074;SDS011;44860;53.020;6.738;2023-03-24T05:54:34;13.52;;;3.40;;
59074;SDS011;44860;53.020;6.738;2023-03-24T05:57:00;14.32;;;3.67;;
59074;SDS011;44860;53.020;6.738;2023-03-24T05:59:27;13.40;;;3.42;;
59074;SDS011;44860;53.020;6.738;2023-03-24T06:01:52;11.50;;;3.30;;
59074;SDS011;44860;53.020;6.738;2023-03-24T06:04:22;13.60;;;3.33;;
59074;SDS011;44860;53.020;6.738;2023-03-24T06:06:48;15.25;;;3.25;;
59074;SDS011;44860;53.020;6.738;2023-03-24T06:09:14;13.93;;;3.40;;
59074;SDS011;44860;53.020;6.738;2023-03-24T06:11:43;14.40;;;3.50;;
59074;SDS011;44860;53.020;6.738;2023-03-24T06:14:09;14.00;;;3.42;;
59074;SDS011;44860;53.020;6.738;2023-03-24T06:16:35;15.68;;;3.35;;
59074;SDS011;44860;53.020;6.738;2023-03-24T06:19:04;13.93;;;3.03;;
59074;SDS011;44860;53.020;6.738;2023-03-24T06:21:31;11.57;;;3.35;;
59074;SDS011;44860;53.020;6.738;2023-03-24T06:23:57;11.57;;;3.25;;
59074;SDS011;44860;53.020;6.738;2023-03-24T06:26:24;9.23;;;2.70;;
59074;SDS011;44860;53.020;6.738;2023-03-24T06:28:50;12.38;;;2.80;;
59074;SDS011;44860;53.020;6.738;2023-03-24T06:31:18;14.07;;;3.00;;
59074;SDS011;44860;53.020;6.738;2023-03-24T06:33:46;12.07;;;2.83;;
59074;SDS011;44860;53.020;6.738;2023-03-24T06:38:48;13.75;;;3.20;;
59074;SDS011;44860;53.020;6.738;2023-03-24T06:41:17;14.35;;;3.13;;
59074;SDS011;44860;53.020;6.738;2023-03-24T06:43:43;7.18;;;2.58;;
59074;SDS011;44860;53.020;6.738;2023-03-24T06:46:09;11.63;;;2.58;;
59074;SDS011;44860;53.020;6.738;2023-03-24T06:48:34;12.82;;;3.17;;
59074;SDS011;44860;53.020;6.738;2023-03-24T06:51:00;11.90;;;2.90;;
59074;SDS011;44860;53.020;6.738;2023-03-24T06:53:26;10.05;;;2.88;;
59074;SDS011;44860;53.020;6.738;2023-03-24T06:55:52;13.38;;;3.00;;
59074;SDS011;44860;53.020;6.738;2023-03-24T06:58:18;13.40;;;2.83;;
59074;SDS011;44860;53.020;6.738;2023-03-24T07:00:44;15.15;;;3.22;;
59074;SDS011;44860;53.020;6.738;2023-03-24T07:03:11;12.00;;;2.78;;
59074;SDS011;44860;53.020;6.738;2023-03-24T07:05:42;12.18;;;2.70;;
59074;SDS011;44860;53.020;6.738;2023-03-24T07:08:09;12.00;;;2.58;;
59074;SDS011;44860;53.020;6.738;2023-03-24T07:10:36;13.20;;;2.88;;
59074;SDS011;44860;53.020;6.738;2023-03-24T07:13:06;17.30;;;3.47;;
59074;SDS011;44860;53.020;6.738;2023-03-24T07:15:32;12.70;;;2.92;;
59074;SDS011;44860;53.020;6.738;2023-03-24T07:17:59;14.57;;;3.28;;
59074;SDS011;44860;53.020;6.738;2023-03-24T07:20:24;12.05;;;3.13;;
59074;SDS011;44860;53.020;6.738;2023-03-24T07:22:53;13.90;;;2.97;;
59074;SDS011;44860;53.020;6.738;2023-03-24T07:25:20;11.82;;;2.88;;
59074;SDS011;44860;53.020;6.738;2023-03-24T07:27:45;13.90;;;3.03;;
59074;SDS011;44860;53.020;6.738;2023-03-24T07:30:11;17.48;;;3.22;;
59074;SDS011;44860;53.020;6.738;2023-03-24T07:32:37;15.20;;;3.20;;
59074;SDS011;44860;53.020;6.738;2023-03-24T07:35:07;16.15;;;3.58;;
59074;SDS011;44860;53.020;6.738;2023-03-24T07:37:35;17.52;;;3.80;;
59074;SDS011;44860;53.020;6.738;2023-03-24T07:40:01;16.02;;;2.80;;
59074;SDS011;44860;53.020;6.738;2023-03-24T07:42:31;17.52;;;3.70;;
59074;SDS011;44860;53.020;6.738;2023-03-24T07:44:57;15.57;;;3.60;;
59074;SDS011;44860;53.020;6.738;2023-03-24T07:47:23;19.30;;;3.88;;
59074;SDS011;44860;53.020;6.738;2023-03-24T07:49:48;18.15;;;3.40;;
59074;SDS011;44860;53.020;6.738;2023-03-24T07:52:14;18.88;;;3.40;;
59074;SDS011;44860;53.020;6.738;2023-03-24T07:54:39;14.70;;;3.60;;
59074;SDS011;44860;53.020;6.738;2023-03-24T07:57:05;21.23;;;5.07;;
59074;SDS011;44860;53.020;6.738;2023-03-24T07:59:31;16.15;;;3.38;;
59074;SDS011;44860;53.020;6.738;2023-03-24T08:01:58;17.58;;;3.50;;
59074;SDS011;44860;53.020;6.738;2023-03-24T08:04:23;16.15;;;3.65;;
59074;SDS011;44860;53.020;6.738;2023-03-24T08:06:51;18.40;;;3.85;;
59074;SDS011;44860;53.020;6.738;2023-03-24T08:09:17;24.38;;;3.92;;
59074;SDS011;44860;53.020;6.738;2023-03-24T08:11:43;17.15;;;3.45;;
59074;SDS011;44860;53.020;6.738;2023-03-24T08:14:09;17.23;;;3.63;;
59074;SDS011;44860;53.020;6.738;2023-03-24T08:16:34;16.77;;;3.63;;
59074;SDS011;44860;53.020;6.738;2023-03-24T08:19:02;17.27;;;3.20;;
59074;SDS011;44860;53.020;6.738;2023-03-24T08:21:28;18.77;;;3.88;;
59074;SDS011;44860;53.020;6.738;2023-03-24T08:23:54;14.98;;;3.30;;
59074;SDS011;44860;53.020;6.738;2023-03-24T08:26:19;20.17;;;3.85;;
59074;SDS011;44860;53.020;6.738;2023-03-24T08:28:46;18.55;;;3.45;;
59074;SDS011;44860;53.020;6.738;2023-03-24T08:31:13;22.65;;;4.13;;
59074;SDS011;44860;53.020;6.738;2023-03-24T08:33:39;17.98;;;3.38;;
59074;SDS011;44860;53.020;6.738;2023-03-24T08:36:06;18.77;;;4.15;;
59074;SDS011;44860;53.020;6.738;2023-03-24T08:38:32;20.33;;;4.47;;
59074;SDS011;44860;53.020;6.738;2023-03-24T08:40:58;17.98;;;3.70;;
59074;SDS011;44860;53.020;6.738;2023-03-24T08:43:29;26.08;;;5.00;;
59074;SDS011;44860;53.020;6.738;2023-03-24T08:45:56;16.75;;;3.95;;
59074;SDS011;44860;53.020;6.738;2023-03-24T08:48:22;15.73;;;3.85;;
59074;SDS011;44860;53.020;6.738;2023-03-24T08:50:48;21.73;;;3.92;;
59074;SDS011;44860;53.020;6.738;2023-03-24T08:53:14;23.25;;;4.05;;
59074;SDS011;44860;53.020;6.738;2023-03-24T08:55:40;21.75;;;4.07;;
59074;SDS011;44860;53.020;6.738;2023-03-24T08:58:12;22.15;;;3.92;;
59074;SDS011;44860;53.020;6.738;2023-03-24T09:00:39;17.20;;;3.47;;
59074;SDS011;44860;53.020;6.738;2023-03-24T09:03:05;22.35;;;3.92;;
59074;SDS011;44860;53.020;6.738;2023-03-24T09:05:31;20.95;;;4.10;;
59074;SDS011;44860;53.020;6.738;2023-03-24T09:07:57;18.85;;;3.60;;
59074;SDS011;44860;53.020;6.738;2023-03-24T09:10:24;24.20;;;4.47;;
59074;SDS011;44860;53.020;6.738;2023-03-24T09:12:50;18.92;;;3.72;;
59074;SDS011;44860;53.020;6.738;2023-03-24T09:15:16;19.52;;;3.60;;
59074;SDS011;44860;53.020;6.738;2023-03-24T09:17:42;24.65;;;3.70;;
59074;SDS011;44860;53.020;6.738;2023-03-24T09:20:09;19.27;;;3.83;;
59074;SDS011;44860;53.020;6.738;2023-03-24T09:22:40;14.77;;;3.22;;
59074;SDS011;44860;53.020;6.738;2023-03-24T09:25:07;19.00;;;3.88;;
59074;SDS011;44860;53.020;6.738;2023-03-24T09:27:35;13.88;;;3.03;;
59074;SDS011;44860;53.020;6.738;2023-03-24T09:30:01;20.75;;;3.53;;
59074;SDS011;44860;53.020;6.738;2023-03-24T09:32:26;17.30;;;3.17;;
59074;SDS011;44860;53.020;6.738;2023-03-24T09:34:52;15.70;;;3.60;;
59074;SDS011;44860;53.020;6.738;2023-03-24T09:37:18;15.68;;;3.03;;
59074;SDS011;44860;53.020;6.738;2023-03-24T09:39:43;14.45;;;2.95;;
59074;SDS011;44860;53.020;6.738;2023-03-24T09:42:14;17.80;;;3.30;;
59074;SDS011;44860;53.020;6.738;2023-03-24T09:44:50;17.52;;;3.33;;
59074;SDS011;44860;53.020;6.738;2023-03-24T09:47:45;15.18;;;3.70;;
59074;SDS011;44860;53.020;6.738;2023-03-24T09:53:05;22.30;;;4.20;;
59074;SDS011;44860;53.020;6.738;2023-03-24T09:55:51;17.38;;;3.58;;
59074;SDS011;44860;53.020;6.738;2023-03-24T09:58:17;18.08;;;3.33;;
59074;SDS011;44860;53.020;6.738;2023-03-24T10:00:44;16.42;;;3.80;;
59074;SDS011;44860;53.020;6.738;2023-03-24T10:03:13;16.05;;;3.70;;
59074;SDS011;44860;53.020;6.738;2023-03-24T10:05:51;12.73;;;3.00;;
59074;SDS011;44860;53.020;6.738;2023-03-24T10:08:40;20.10;;;4.00;;
59074;SDS011;44860;53.020;6.738;2023-03-24T10:19:59;18.17;;;3.55;;
59074;SDS011;44860;53.020;6.738;2023-03-24T10:22:45;16.88;;;3.47;;
59074;SDS011;44860;53.020;6.738;2023-03-24T10:25:24;12.68;;;3.08;;
59074;SDS011;44860;53.020;6.738;2023-03-24T10:30:41;14.82;;;2.88;;
59074;SDS011;44860;53.020;6.738;2023-03-24T10:33:09;17.50;;;3.40;;
59074;SDS011;44860;53.020;6.738;2023-03-24T10:35:36;19.48;;;4.13;;
59074;SDS011;44860;53.020;6.738;2023-03-24T10:38:25;17.98;;;3.75;;
59074;SDS011;44860;53.020;6.738;2023-03-24T10:40:51;17.80;;;3.67;;
59074;SDS011;44860;53.020;6.738;2023-03-24T10:43:19;15.48;;;3.33;;
59074;SDS011;44860;53.020;6.738;2023-03-24T10:45:51;12.77;;;3.00;;
59074;SDS011;44860;53.020;6.738;2023-03-24T10:51:03;16.05;;;3.40;;
59074;SDS011;44860;53.020;6.738;2023-03-24T10:53:30;13.93;;;3.40;;
59074;SDS011;44860;53.020;6.738;2023-03-24T10:55:57;14.15;;;3.40;;
59074;SDS011;44860;53.020;6.738;2023-03-24T11:01:09;12.95;;;2.92;;
59074;SDS011;44860;53.020;6.738;2023-03-24T11:03:48;20.20;;;3.42;;
59074;SDS011;44860;53.020;6.738;2023-03-24T11:06:19;17.50;;;3.05;;
59074;SDS011;44860;53.020;6.738;2023-03-24T11:08:45;11.98;;;2.55;;
59074;SDS011;44860;53.020;6.738;2023-03-24T11:11:30;16.17;;;3.70;;
59074;SDS011;44860;53.020;6.738;2023-03-24T11:13:58;12.57;;;2.88;;
59074;SDS011;44860;53.020;6.738;2023-03-24T11:16:29;12.48;;;2.95;;
59074;SDS011;44860;53.020;6.738;2023-03-24T11:18:58;13.98;;;3.17;;
59074;SDS011;44860;53.020;6.738;2023-03-24T11:21:30;16.13;;;3.72;;
59074;SDS011;44860;53.020;6.738;2023-03-24T11:23:59;13.77;;;2.88;;
59074;SDS011;44860;53.020;6.738;2023-03-24T11:26:27;12.32;;;2.75;;
59074;SDS011;44860;53.020;6.738;2023-03-24T11:28:58;17.13;;;3.05;;
59074;SDS011;44860;53.020;6.738;2023-03-24T11:31:32;14.73;;;2.63;;
59074;SDS011;44860;53.020;6.738;2023-03-24T11:36:47;10.75;;;2.80;;
59074;SDS011;44860;53.020;6.738;2023-03-24T11:39:25;12.00;;;2.50;;
59074;SDS011;44860;53.020;6.738;2023-03-24T11:44:46;12.80;;;2.65;;
59074;SDS011;44860;53.020;6.738;2023-03-24T11:50:03;15.23;;;3.00;;
59074;SDS011;44860;53.020;6.738;2023-03-24T11:52:39;12.02;;;2.92;;
59074;SDS011;44860;53.020;6.738;2023-03-24T11:55:17;10.85;;;2.92;;
59074;SDS011;44860;53.020;6.738;2023-03-24T11:57:51;10.60;;;2.47;;
59074;SDS011;44860;53.020;6.738;2023-03-24T12:00:34;13.40;;;2.80;;
59074;SDS011;44860;53.020;6.738;2023-03-24T12:11:57;13.15;;;2.92;;
59074;SDS011;44860;53.020;6.738;2023-03-24T12:18:19;11.73;;;3.08;;
59074;SDS011;44860;53.020;6.738;2023-03-24T12:20:27;12.25;;;2.88;;
59074;SDS011;44860;53.020;6.738;2023-03-24T12:23:08;15.45;;;2.90;;
59074;SDS011;44860;53.020;6.738;2023-03-24T12:28:50;13.57;;;2.45;;
59074;SDS011;44860;53.020;6.738;2023-03-24T12:37:16;12.80;;;2.95;;
59074;SDS011;44860;53.020;6.738;2023-03-24T12:46:21;9.77;;;2.15;;
59074;SDS011;44860;53.020;6.738;2023-03-24T12:48:58;11.63;;;2.20;;
59074;SDS011;44860;53.020;6.738;2023-03-24T12:51:41;9.98;;;2.28;;
59074;SDS011;44860;53.020;6.738;2023-03-24T12:56:51;10.65;;;2.33;;
59074;SDS011;44860;53.020;6.738;2023-03-24T13:02:28;10.85;;;1.95;;
59074;SDS011;44860;53.020;6.738;2023-03-24T13:05:14;12.48;;;2.38;;
59074;SDS011;44860;53.020;6.738;2023-03-24T13:07:45;9.65;;;2.10;;
59074;SDS011;44860;53.020;6.738;2023-03-24T13:10:28;11.48;;;2.55;;
59074;SDS011;44860;53.020;6.738;2023-03-24T13:15:59;12.45;;;2.60;;
59074;SDS011;44860;53.020;6.738;2023-03-24T13:18:40;13.23;;;2.42;;
59074;SDS011;44860;53.020;6.738;2023-03-24T13:21:14;11.13;;;2.65;;
59074;SDS011;44860;53.020;6.738;2023-03-24T13:26:36;13.88;;;2.90;;
59074;SDS011;44860;53.020;6.738;2023-03-24T13:34:48;13.48;;;2.80;;
59074;SDS011;44860;53.020;6.738;2023-03-24T13:37:24;11.13;;;2.40;;
59074;SDS011;44860;53.020;6.738;2023-03-24T13:39:57;18.30;;;3.28;;
59074;SDS011;44860;53.020;6.738;2023-03-24T13:45:01;14.23;;;2.88;;
59074;SDS011;44860;53.020;6.738;2023-03-24T13:50:26;11.88;;;2.22;;
59074;SDS011;44860;53.020;6.738;2023-03-24T13:53:03;11.88;;;2.47;;
59074;SDS011;44860;53.020;6.738;2023-03-24T13:55:33;13.98;;;3.33;;
59074;SDS011;44860;53.020;6.738;2023-03-24T13:58:07;12.93;;;2.70;;
59074;SDS011;44860;53.020;6.738;2023-03-24T14:03:45;15.60;;;2.95;;
59074;SDS011;44860;53.020;6.738;2023-03-24T14:09:27;13.18;;;3.05;;
59074;SDS011;44860;53.020;6.738;2023-03-24T14:14:24;13.38;;;2.90;;
59074;SDS011;44860;53.020;6.738;2023-03-24T14:19:41;12.73;;;2.65;;
59074;SDS011;44860;53.020;6.738;2023-03-24T14:22:19;13.55;;;2.95;;
59074;SDS011;44860;53.020;6.738;2023-03-24T14:24:56;12.52;;;2.30;;
59074;SDS011;44860;53.020;6.738;2023-03-24T14:27:35;13.15;;;2.95;;
59074;SDS011;44860;53.020;6.738;2023-03-24T14:33:20;11.25;;;2.40;;
59074;SDS011;44860;53.020;6.738;2023-03-24T14:35:41;12.55;;;2.78;;
59074;SDS011;44860;53.020;6.738;2023-03-24T14:40:46;12.50;;;2.72;;
59074;SDS011;44860;53.020;6.738;2023-03-24T14:43:26;15.10;;;2.42;;
59074;SDS011;44860;53.020;6.738;2023-03-24T14:48:33;13.27;;;3.10;;
59074;SDS011;44860;53.020;6.738;2023-03-24T14:54:05;13.45;;;3.40;;
59074;SDS011;44860;53.020;6.738;2023-03-24T14:56:51;12.57;;;2.20;;
59074;SDS011;44860;53.020;6.738;2023-03-24T15:02:44;9.70;;;2.00;;
59074;SDS011;44860;53.020;6.738;2023-03-24T15:07:58;10.30;;;1.98;;
59074;SDS011;44860;53.020;6.738;2023-03-24T15:10:26;11.57;;;2.20;;
59074;SDS011;44860;53.020;6.738;2023-03-24T15:12:59;7.57;;;2.15;;
59074;SDS011;44860;53.020;6.738;2023-03-24T15:15:25;10.57;;;2.22;;
59074;SDS011;44860;53.020;6.738;2023-03-24T15:17:51;10.05;;;1.90;;
59074;SDS011;44860;53.020;6.738;2023-03-24T15:20:27;11.98;;;2.17;;
59074;SDS011;44860;53.020;6.738;2023-03-24T15:22:55;8.98;;;1.80;;
59074;SDS011;44860;53.020;6.738;2023-03-24T15:25:32;10.48;;;2.40;;
59074;SDS011;44860;53.020;6.738;2023-03-24T15:27:58;8.60;;;1.85;;
59074;SDS011;44860;53.020;6.738;2023-03-24T15:30:24;10.07;;;1.70;;
59074;SDS011;44860;53.020;6.738;2023-03-24T15:32:52;9.55;;;1.73;;
59074;SDS011;44860;53.020;6.738;2023-03-24T15:35:20;8.57;;;1.90;;
59074;SDS011;44860;53.020;6.738;2023-03-24T15:37:53;9.82;;;1.80;;
59074;SDS011;44860;53.020;6.738;2023-03-24T15:42:59;8.32;;;2.20;;
59074;SDS011;44860;53.020;6.738;2023-03-24T15:47:54;12.98;;;2.45;;
59074;SDS011;44860;53.020;6.738;2023-03-24T15:50:35;10.75;;;2.10;;
59074;SDS011;44860;53.020;6.738;2023-03-24T15:53:19;12.93;;;2.95;;
59074;SDS011;44860;53.020;6.738;2023-03-24T15:55:45;12.57;;;2.67;;
59074;SDS011;44860;53.020;6.738;2023-03-24T15:58:22;12.70;;;2.15;;
59074;SDS011;44860;53.020;6.738;2023-03-24T16:00:51;12.40;;;1.90;;
59074;SDS011;44860;53.020;6.738;2023-03-24T16:03:20;12.23;;;2.30;;
59074;SDS011;44860;53.020;6.738;2023-03-24T16:05:50;12.05;;;2.17;;
59074;SDS011;44860;53.020;6.738;2023-03-24T16:08:33;10.18;;;2.58;;
59074;SDS011;44860;53.020;6.738;2023-03-24T16:11:03;10.23;;;2.33;;
59074;SDS011;44860;53.020;6.738;2023-03-24T16:13:36;11.60;;;2.25;;
59074;SDS011;44860;53.020;6.738;2023-03-24T16:18:32;10.07;;;2.00;;
59074;SDS011;44860;53.020;6.738;2023-03-24T16:21:01;9.27;;;2.10;;
59074;SDS011;44860;53.020;6.738;2023-03-24T16:23:33;11.75;;;2.90;;
59074;SDS011;44860;53.020;6.738;2023-03-24T16:25:58;12.65;;;5.20;;
59074;SDS011;44860;53.020;6.738;2023-03-24T16:28:24;13.50;;;2.63;;
59074;SDS011;44860;53.020;6.738;2023-03-24T16:30:59;13.02;;;2.88;;
59074;SDS011;44860;53.020;6.738;2023-03-24T16:33:27;9.70;;;2.28;;
59074;SDS011;44860;53.020;6.738;2023-03-24T16:35:54;9.50;;;2.53;;
59074;SDS011;44860;53.020;6.738;2023-03-24T16:38:20;11.20;;;2.17;;
59074;SDS011;44860;53.020;6.738;2023-03-24T16:40:47;14.20;;;2.58;;
59074;SDS011;44860;53.020;6.738;2023-03-24T16:43:15;8.15;;;2.17;;
59074;SDS011;44860;53.020;6.738;2023-03-24T16:45:40;9.55;;;1.98;;
59074;SDS011;44860;53.020;6.738;2023-03-24T16:48:10;10.18;;;2.20;;
59074;SDS011;44860;53.020;6.738;2023-03-24T16:50:54;8.63;;;2.50;;
59074;SDS011;44860;53.020;6.738;2023-03-24T16:53:21;7.80;;;2.97;;
59074;SDS011;44860;53.020;6.738;2023-03-24T16:55:47;8.60;;;2.17;;
59074;SDS011;44860;53.020;6.738;2023-03-24T16:58:14;9.85;;;1.75;;
59074;SDS011;44860;53.020;6.738;2023-03-24T17:00:41;10.75;;;2.00;;
59074;SDS011;44860;53.020;6.738;2023-03-24T17:03:12;6.97;;;2.10;;
59074;SDS011;44860;53.020;6.738;2023-03-24T17:05:40;6.07;;;1.65;;
59074;SDS011;44860;53.020;6.738;2023-03-24T17:08:13;9.02;;;1.88;;
59074;SDS011;44860;53.020;6.738;2023-03-24T17:10:39;7.75;;;1.42;;
59074;SDS011;44860;53.020;6.738;2023-03-24T17:13:07;9.02;;;1.95;;
59074;SDS011;44860;53.020;6.738;2023-03-24T17:15:38;7.90;;;1.65;;
59074;SDS011;44860;53.020;6.738;2023-03-24T17:18:04;8.27;;;1.52;;
59074;SDS011;44860;53.020;6.738;2023-03-24T17:20:32;8.05;;;1.50;;
59074;SDS011;44860;53.020;6.738;2023-03-24T17:22:59;7.50;;;1.83;;
59074;SDS011;44860;53.020;6.738;2023-03-24T17:25:25;17.02;;;7.43;;
59074;SDS011;44860;53.020;6.738;2023-03-24T17:27:53;10.13;;;2.20;;
59074;SDS011;44860;53.020;6.738;2023-03-24T17:30:20;11.00;;;2.05;;
59074;SDS011;44860;53.020;6.738;2023-03-24T17:32:48;6.72;;;1.58;;
59074;SDS011;44860;53.020;6.738;2023-03-24T17:35:17;8.32;;;1.80;;
59074;SDS011;44860;53.020;6.738;2023-03-24T17:37:44;5.82;;;1.63;;
59074;SDS011;44860;53.020;6.738;2023-03-24T17:40:10;8.93;;;1.85;;
59074;SDS011;44860;53.020;6.738;2023-03-24T17:42:38;8.15;;;1.92;;
59074;SDS011;44860;53.020;6.738;2023-03-24T17:45:05;9.93;;;2.00;;
59074;SDS011;44860;53.020;6.738;2023-03-24T17:47:33;7.28;;;1.90;;
59074;SDS011;44860;53.020;6.738;2023-03-24T17:49:59;7.30;;;1.88;;
59074;SDS011;44860;53.020;6.738;2023-03-24T17:52:25;8.85;;;2.08;;
59074;SDS011;44860;53.020;6.738;2023-03-24T17:54:51;8.05;;;1.85;;
59074;SDS011;44860;53.020;6.738;2023-03-24T17:57:16;10.40;;;2.22;;